Time;durP1;ratioP1;P1;durP2;ratioP2;P2;SDS_P1;SDS_P2;PMS_P1;PMS_P2;Temp;Humidity;BMP_temperature;BMP_pressure;BME280_temperature;BME280_humidity;BME280_pressure;Samples;Min_cycle;Max_cycle;Signal;HPM_P1;HPM_P2
2021/11/22 00:02:12;;;;;;;6.25;1.35;;;;;;;;;;5052598;28;20422;-87
2021/11/22 00:04:38;;;;;;;3.40;0.70;;;;;;;;;;5069557;28;20392;-89
2021/11/22 00:07:04;;;;;;;7.32;1.20;;;;;;;;;;5091718;28;20127;-85
2021/11/22 00:09:33;;;;;;;5.90;0.77;;;;;;;;;;5061626;28;20049;-86
2021/11/22 00:11:59;;;;;;;5.60;0.65;;;;;;;;;;5080253;28;20427;-84
2021/11/22 00:14:25;;;;;;;11.10;1.40;;;;;;;;;;5063315;28;20060;-86
2021/11/22 00:16:51;;;;;;;3.40;0.63;;;;;;;;;;5047397;28;20057;-84
2021/11/22 00:19:17;;;;;;;5.68;0.77;;;;;;;;;;5068973;28;20147;-81
2021/11/22 00:21:43;;;;;;;4.53;1.02;;;;;;;;;;5076896;28;20059;-75
2021/11/22 00:24:09;;;;;;;7.05;0.88;;;;;;;;;;5064661;28;20135;-77
2021/11/22 00:26:36;;;;;;;5.43;0.70;;;;;;;;;;5052719;28;20045;-77
2021/11/22 00:29:02;;;;;;;7.13;0.85;;;;;;;;;;5069425;28;20071;-76
2021/11/22 00:31:28;;;;;;;7.43;0.95;;;;;;;;;;5059196;28;20068;-82
2021/11/22 00:33:54;;;;;;;6.03;0.68;;;;;;;;;;5061188;28;20060;-77
2021/11/22 00:36:21;;;;;;;5.93;1.20;;;;;;;;;;5052089;28;20041;-77
2021/11/22 00:38:48;;;;;;;3.88;0.60;;;;;;;;;;5058736;28;20411;-76
2021/11/22 00:41:14;;;;;;;3.88;0.98;;;;;;;;;;5056934;28;20053;-77
2021/11/22 00:43:40;;;;;;;5.10;0.90;;;;;;;;;;5064579;28;20037;-76
2021/11/22 00:46:07;;;;;;;6.65;1.40;;;;;;;;;;5069342;28;20094;-76
2021/11/22 00:48:35;;;;;;;6.47;0.85;;;;;;;;;;5065572;28;20509;-77
2021/11/22 00:51:01;;;;;;;4.13;0.68;;;;;;;;;;5091990;28;20057;-76
2021/11/22 00:53:29;;;;;;;6.32;1.05;;;;;;;;;;5054786;28;20052;-78
2021/11/22 00:55:55;;;;;;;3.97;0.73;;;;;;;;;;5089407;28;20131;-77
2021/11/22 00:58:21;;;;;;;3.58;0.77;;;;;;;;;;5085370;28;20045;-77
2021/11/22 01:00:47;;;;;;;3.55;0.73;;;;;;;;;;5032354;28;20049;-76
2021/11/22 01:03:14;;;;;;;7.72;0.90;;;;;;;;;;5086962;28;20079;-76
2021/11/22 01:05:40;;;;;;;5.50;0.80;;;;;;;;;;5084440;28;20070;-76
2021/11/22 01:08:06;;;;;;;8.65;1.02;;;;;;;;;;5067839;28;20055;-77
2021/11/22 01:10:33;;;;;;;5.18;0.70;;;;;;;;;;5103380;28;20131;-81
2021/11/22 01:12:59;;;;;;;4.68;0.85;;;;;;;;;;5094109;28;20033;-77
2021/11/22 01:15:25;;;;;;;4.35;0.63;;;;;;;;;;5101925;28;20508;-76
2021/11/22 01:17:52;;;;;;;7.53;0.70;;;;;;;;;;5092566;28;20068;-79
2021/11/22 01:20:21;;;;;;;4.47;1.02;;;;;;;;;;5062914;28;20496;-76
2021/11/22 01:22:47;;;;;;;4.88;0.77;;;;;;;;;;5081624;28;20049;-77
2021/11/22 01:25:13;;;;;;;4.05;0.65;;;;;;;;;;5046234;28;20395;-76
2021/11/22 01:27:40;;;;;;;6.30;0.93;;;;;;;;;;5078709;28;20055;-79
2021/11/22 01:30:09;;;;;;;6.47;1.65;;;;;;;;;;5086900;28;20045;-77
2021/11/22 01:32:36;;;;;;;4.55;0.77;;;;;;;;;;5096884;28;20052;-85
2021/11/22 01:35:02;;;;;;;4.30;0.60;;;;;;;;;;5096857;28;20052;-77
2021/11/22 01:37:28;;;;;;;5.60;0.77;;;;;;;;;;5098814;28;20063;-77
2021/11/22 01:39:54;;;;;;;5.32;0.60;;;;;;;;;;5061994;28;20037;-76
2021/11/22 01:42:20;;;;;;;9.02;0.90;;;;;;;;;;5065209;28;20041;-77
2021/11/22 01:44:46;;;;;;;6.35;0.90;;;;;;;;;;5058522;28;20048;-76
2021/11/22 01:47:12;;;;;;;3.20;0.50;;;;;;;;;;5063998;28;20480;-77
2021/11/22 01:49:38;;;;;;;4.22;0.77;;;;;;;;;;5059095;28;20068;-81
2021/11/22 01:52:05;;;;;;;4.85;1.00;;;;;;;;;;5065247;28;20037;-76
2021/11/22 01:54:31;;;;;;;4.22;0.88;;;;;;;;;;5089436;28;20048;-77
2021/11/22 01:56:58;;;;;;;5.40;0.80;;;;;;;;;;5093096;28;20044;-76
2021/11/22 01:59:24;;;;;;;3.38;0.68;;;;;;;;;;5095624;28;20033;-76
2021/11/22 02:01:50;;;;;;;3.58;0.60;;;;;;;;;;5084484;28;20045;-76
2021/11/22 02:04:17;;;;;;;6.57;0.80;;;;;;;;;;5090526;28;20377;-77
2021/11/22 02:06:43;;;;;;;4.55;0.73;;;;;;;;;;5068692;28;20087;-77
2021/11/22 02:09:09;;;;;;;6.20;0.80;;;;;;;;;;5078027;28;20803;-76
2021/11/22 02:11:36;;;;;;;4.50;0.75;;;;;;;;;;5085682;28;20114;-77
2021/11/22 02:14:02;;;;;;;2.38;0.55;;;;;;;;;;5092152;28;20102;-76
2021/11/22 02:16:28;;;;;;;8.05;0.98;;;;;;;;;;5067801;28;20491;-79
2021/11/22 02:18:55;;;;;;;3.95;0.63;;;;;;;;;;5069207;28;20491;-76
2021/11/22 02:21:21;;;;;;;4.80;0.60;;;;;;;;;;5084931;28;20063;-76
2021/11/22 02:23:47;;;;;;;4.28;0.93;;;;;;;;;;5068285;28;20045;-76
2021/11/22 02:26:13;;;;;;;5.07;0.68;;;;;;;;;;5053197;28;20471;-76
2021/11/22 02:28:39;;;;;;;8.68;1.13;;;;;;;;;;5078171;28;20052;-76
2021/11/22 02:31:05;;;;;;;3.92;0.80;;;;;;;;;;5070484;28;20052;-76
2021/11/22 02:33:32;;;;;;;7.57;0.70;;;;;;;;;;5059338;28;20053;-76
2021/11/22 02:36:00;;;;;;;4.68;0.73;;;;;;;;;;5063994;28;20037;-77
2021/11/22 02:38:30;;;;;;;5.57;1.10;;;;;;;;;;5063073;28;20033;-76
2021/11/22 02:40:57;;;;;;;5.95;1.23;;;;;;;;;;5065486;28;20052;-77
2021/11/22 02:43:24;;;;;;;4.22;0.80;;;;;;;;;;5050158;28;20545;-76
2021/11/22 02:45:50;;;;;;;4.07;0.70;;;;;;;;;;5081492;28;20044;-81
2021/11/22 02:48:16;;;;;;;5.18;0.65;;;;;;;;;;5072311;28;20859;-76
2021/11/22 02:50:42;;;;;;;6.22;0.77;;;;;;;;;;5056559;28;20052;-73
2021/11/22 02:53:09;;;;;;;5.47;0.80;;;;;;;;;;5061113;28;20051;-76
2021/11/22 02:55:35;;;;;;;7.55;2.60;;;;;;;;;;5086306;28;20095;-76
2021/11/22 02:58:01;;;;;;;4.72;0.70;;;;;;;;;;5055984;28;20041;-75
2021/11/22 03:00:28;;;;;;;5.03;0.68;;;;;;;;;;5056175;28;20424;-76
2021/11/22 03:02:55;;;;;;;7.10;0.88;;;;;;;;;;5061048;28;20045;-75
2021/11/22 03:05:21;;;;;;;6.97;0.70;;;;;;;;;;5057449;28;20130;-76
2021/11/22 03:07:49;;;;;;;4.55;0.63;;;;;;;;;;5086709;28;20071;-80
2021/11/22 03:10:16;;;;;;;4.65;0.70;;;;;;;;;;5053659;28;20124;-76
2021/11/22 03:12:42;;;;;;;6.93;0.85;;;;;;;;;;5070455;28;20068;-76
2021/11/22 03:15:10;;;;;;;4.82;0.60;;;;;;;;;;5044501;28;20041;-76
2021/11/22 03:17:36;;;;;;;7.22;0.60;;;;;;;;;;5060845;28;20767;-76
2021/11/22 03:20:03;;;;;;;2.17;0.55;;;;;;;;;;5045620;28;20052;-76
2021/11/22 03:22:29;;;;;;;6.97;0.60;;;;;;;;;;5074627;28;20415;-76
2021/11/22 03:24:55;;;;;;;5.45;1.20;;;;;;;;;;5045714;28;20099;-76
2021/11/22 03:27:21;;;;;;;10.13;0.93;;;;;;;;;;5096190;28;20041;-76
2021/11/22 03:29:48;;;;;;;7.13;0.85;;;;;;;;;;5082519;28;20040;-76
2021/11/22 03:32:14;;;;;;;7.97;1.05;;;;;;;;;;5060479;28;20047;-76
2021/11/22 03:34:40;;;;;;;4.43;0.60;;;;;;;;;;5065079;28;20551;-76
2021/11/22 03:37:07;;;;;;;7.22;0.80;;;;;;;;;;5073133;28;20429;-76
2021/11/22 03:39:33;;;;;;;7.53;0.70;;;;;;;;;;5067708;28;20412;-76
2021/11/22 03:42:03;;;;;;;4.50;0.50;;;;;;;;;;5064244;28;20037;-76
2021/11/22 03:44:31;;;;;;;4.22;0.60;;;;;;;;;;5074231;28;20446;-76
2021/11/22 03:46:58;;;;;;;12.07;1.65;;;;;;;;;;5083122;28;20036;-75
2021/11/22 03:49:24;;;;;;;3.85;0.82;;;;;;;;;;5094475;28;20613;-76
2021/11/22 03:51:50;;;;;;;5.80;0.47;;;;;;;;;;5101210;28;20052;-75
2021/11/22 03:54:17;;;;;;;4.60;0.82;;;;;;;;;;5094642;28;20045;-75
2021/11/22 03:56:43;;;;;;;5.15;0.77;;;;;;;;;;5077186;28;20150;-75
2021/11/22 03:59:09;;;;;;;4.85;0.70;;;;;;;;;;5057351;28;20483;-75
2021/11/22 04:01:36;;;;;;;5.25;0.77;;;;;;;;;;5075124;28;20048;-75
2021/11/22 04:04:02;;;;;;;8.90;1.33;;;;;;;;;;5066607;28;20578;-75
2021/11/22 04:06:28;;;;;;;5.72;0.85;;;;;;;;;;5093662;28;20079;-76
2021/11/22 04:08:54;;;;;;;2.28;0.68;;;;;;;;;;5089676;28;20098;-80
2021/11/22 04:11:21;;;;;;;1.75;0.60;;;;;;;;;;5092535;28;20040;-79
2021/11/22 04:13:47;;;;;;;2.92;0.50;;;;;;;;;;5048598;28;20045;-76
2021/11/22 04:16:14;;;;;;;4.28;1.00;;;;;;;;;;5048699;28;20060;-77
2021/11/22 04:18:40;;;;;;;3.08;0.65;;;;;;;;;;5058360;28;20128;-75
2021/11/22 04:21:06;;;;;;;4.57;0.70;;;;;;;;;;5052338;28;20131;-76
2021/11/22 04:23:32;;;;;;;6.60;0.82;;;;;;;;;;5053868;28;20040;-76
2021/11/22 04:25:58;;;;;;;5.40;0.82;;;;;;;;;;5087471;28;20432;-76
2021/11/22 04:28:24;;;;;;;4.07;1.00;;;;;;;;;;5078520;28;20048;-76
2021/11/22 04:30:51;;;;;;;6.53;0.70;;;;;;;;;;5057022;28;20044;-78
2021/11/22 04:33:17;;;;;;;3.05;0.63;;;;;;;;;;5044925;28;20045;-76
2021/11/22 04:35:43;;;;;;;3.13;0.43;;;;;;;;;;5082395;28;20084;-75
2021/11/22 04:38:09;;;;;;;4.05;0.40;;;;;;;;;;5087373;28;20091;-77
2021/11/22 04:40:36;;;;;;;4.13;0.55;;;;;;;;;;5061522;28;20041;-75
2021/11/22 04:43:02;;;;;;;5.03;1.08;;;;;;;;;;5087020;28;20052;-76
2021/11/22 04:45:29;;;;;;;10.63;0.80;;;;;;;;;;5046706;28;20040;-76
2021/11/22 04:47:57;;;;;;;7.22;0.95;;;;;;;;;;5083352;28;20094;-76
2021/11/22 04:50:23;;;;;;;4.50;0.60;;;;;;;;;;5088748;28;20048;-75
2021/11/22 04:52:50;;;;;;;3.60;0.90;;;;;;;;;;5092655;28;20053;-75
2021/11/22 04:55:17;;;;;;;5.10;0.80;;;;;;;;;;5072399;28;20043;-75
2021/11/22 04:57:43;;;;;;;8.00;0.93;;;;;;;;;;5097099;28;20044;-75
2021/11/22 05:00:10;;;;;;;8.73;2.20;;;;;;;;;;5091178;28;20126;-75
2021/11/22 05:02:39;;;;;;;3.85;0.85;;;;;;;;;;5086443;28;20110;-75
2021/11/22 05:05:05;;;;;;;5.10;0.98;;;;;;;;;;5048491;28;20048;-76
2021/11/22 05:07:31;;;;;;;6.90;1.10;;;;;;;;;;5090791;28;20053;-75
2021/11/22 05:09:57;;;;;;;4.88;0.98;;;;;;;;;;5070544;28;20083;-76
2021/11/22 05:12:23;;;;;;;10.57;1.45;;;;;;;;;;5101237;28;20086;-80
2021/11/22 05:14:49;;;;;;;3.58;1.02;;;;;;;;;;5080088;28;20128;-76
2021/11/22 05:17:16;;;;;;;3.47;1.23;;;;;;;;;;5065082;28;20564;-76
2021/11/22 05:19:42;;;;;;;5.90;1.23;;;;;;;;;;5059307;28;20491;-76
2021/11/22 05:22:08;;;;;;;4.78;0.93;;;;;;;;;;5050486;28;20051;-74
2021/11/22 05:24:34;;;;;;;5.85;0.82;;;;;;;;;;5082564;28;20127;-77
2021/11/22 05:27:03;;;;;;;2.72;0.75;;;;;;;;;;5082358;28;20056;-79
2021/11/22 05:29:29;;;;;;;5.53;1.25;;;;;;;;;;5102645;28;20147;-77
2021/11/22 05:31:55;;;;;;;11.98;1.27;;;;;;;;;;5094287;28;20044;-78
2021/11/22 05:34:21;;;;;;;5.35;1.00;;;;;;;;;;5048926;28;20041;-77
2021/11/22 05:36:48;;;;;;;6.63;1.20;;;;;;;;;;5066749;28;20510;-75
2021/11/22 05:39:14;;;;;;;5.93;1.30;;;;;;;;;;5045034;28;20033;-76
2021/11/22 05:41:40;;;;;;;3.60;0.95;;;;;;;;;;5073641;28;20080;-75
2021/11/22 05:44:06;;;;;;;5.57;1.38;;;;;;;;;;5065665;28;20049;-85
2021/11/22 05:46:32;;;;;;;5.30;1.33;;;;;;;;;;5031258;28;20052;-75
2021/11/22 05:48:58;;;;;;;5.35;1.13;;;;;;;;;;5096081;28;20041;-81
2021/11/22 05:51:26;;;;;;;5.68;0.98;;;;;;;;;;5065725;28;20444;-76
2021/11/22 05:53:53;;;;;;;6.80;1.33;;;;;;;;;;5101944;28;20491;-75
2021/11/22 05:56:19;;;;;;;2.83;1.02;;;;;;;;;;5035178;28;20056;-82
2021/11/22 05:58:45;;;;;;;4.68;1.63;;;;;;;;;;5056860;28;20044;-76
2021/11/22 06:01:13;;;;;;;5.47;1.27;;;;;;;;;;5045633;28;20076;-76
2021/11/22 06:03:39;;;;;;;6.10;1.02;;;;;;;;;;5060508;28;20045;-76
2021/11/22 06:06:05;;;;;;;6.38;1.40;;;;;;;;;;5062000;28;20065;-76
2021/11/22 06:08:32;;;;;;;6.13;1.30;;;;;;;;;;5071492;28;20057;-75
2021/11/22 06:10:58;;;;;;;7.90;1.55;;;;;;;;;;5067986;28;20887;-76
2021/11/22 06:13:25;;;;;;;5.55;1.40;;;;;;;;;;5083073;28;20056;-76
2021/11/22 06:15:51;;;;;;;4.60;1.42;;;;;;;;;;5068055;28;20052;-76
2021/11/22 06:18:18;;;;;;;3.22;1.15;;;;;;;;;;5068487;28;20052;-75
2021/11/22 06:20:44;;;;;;;6.90;1.17;;;;;;;;;;5051970;28;20158;-75
2021/11/22 06:23:10;;;;;;;8.52;1.40;;;;;;;;;;5061932;28;20095;-83
2021/11/22 06:25:36;;;;;;;9.85;1.70;;;;;;;;;;5064159;28;20076;-75
2021/11/22 06:28:03;;;;;;;5.22;1.30;;;;;;;;;;5094674;28;20488;-78
2021/11/22 06:30:29;;;;;;;6.00;2.00;;;;;;;;;;5053495;28;20037;-77
2021/11/22 06:32:55;;;;;;;4.93;1.40;;;;;;;;;;5104797;28;20044;-75
2021/11/22 06:35:22;;;;;;;4.30;1.70;;;;;;;;;;5100393;28;20072;-73
2021/11/22 06:37:51;;;;;;;4.10;1.50;;;;;;;;;;5070628;28;20059;-75
2021/11/22 06:40:17;;;;;;;5.63;2.25;;;;;;;;;;5060718;28;20446;-75
2021/11/22 06:42:43;;;;;;;5.75;2.33;;;;;;;;;;5063271;28;20427;-76
2021/11/22 06:45:10;;;;;;;4.95;1.90;;;;;;;;;;5050675;28;20107;-80
2021/11/22 06:47:36;;;;;;;4.95;2.03;;;;;;;;;;5074592;28;20127;-80
2021/11/22 06:50:03;;;;;;;5.18;1.98;;;;;;;;;;5054652;28;20590;-83
2021/11/22 06:52:29;;;;;;;7.32;2.00;;;;;;;;;;5051242;28;20044;-81
2021/11/22 06:54:58;;;;;;;6.53;2.70;;;;;;;;;;5026502;28;20045;-74
2021/11/22 06:57:25;;;;;;;5.78;3.70;;;;;;;;;;5059829;28;20053;-76
2021/11/22 06:59:51;;;;;;;9.35;2.65;;;;;;;;;;5079268;28;20147;-75
2021/11/22 07:02:18;;;;;;;10.60;2.20;;;;;;;;;;5069261;28;20051;-74
2021/11/22 07:04:45;;;;;;;5.25;1.83;;;;;;;;;;5073417;28;20052;-76
2021/11/22 07:07:12;;;;;;;10.63;2.10;;;;;;;;;;5068258;28;20044;-75
2021/11/22 07:09:38;;;;;;;6.88;2.20;;;;;;;;;;5051112;28;20055;-75
2021/11/22 07:12:04;;;;;;;6.32;2.00;;;;;;;;;;5065920;28;21324;-76
2021/11/22 07:14:31;;;;;;;6.13;2.03;;;;;;;;;;5070061;28;20402;-75
2021/11/22 07:16:58;;;;;;;8.38;2.10;;;;;;;;;;5036315;28;20438;-74
2021/11/22 07:19:24;;;;;;;6.32;2.08;;;;;;;;;;5068765;28;20076;-75
2021/11/22 07:21:52;;;;;;;8.90;2.00;;;;;;;;;;5080065;28;20040;-78
2021/11/22 07:24:18;;;;;;;8.30;2.05;;;;;;;;;;5052863;28;20041;-77
2021/11/22 07:26:44;;;;;;;7.30;2.05;;;;;;;;;;5068704;28;20040;-76
2021/11/22 07:29:10;;;;;;;9.73;2.10;;;;;;;;;;5051080;28;20049;-76
2021/11/22 07:31:36;;;;;;;12.57;2.58;;;;;;;;;;5075353;28;20053;-76
2021/11/22 07:34:03;;;;;;;7.43;2.15;;;;;;;;;;5082197;28;20510;-79
2021/11/22 07:36:29;;;;;;;8.65;2.20;;;;;;;;;;5087881;28;20040;-77
2021/11/22 07:38:55;;;;;;;6.05;2.10;;;;;;;;;;5051683;28;20036;-76
2021/11/22 07:41:21;;;;;;;8.00;2.30;;;;;;;;;;5080548;28;21814;-76
2021/11/22 07:43:47;;;;;;;8.55;3.00;;;;;;;;;;5071422;28;20396;-76
2021/11/22 07:46:13;;;;;;;5.72;2.20;;;;;;;;;;5078839;28;20091;-80
2021/11/22 07:48:39;;;;;;;4.65;2.00;;;;;;;;;;5027739;28;20131;-76
2021/11/22 07:51:06;;;;;;;10.80;2.55;;;;;;;;;;5059833;28;20383;-80
2021/11/22 07:53:32;;;;;;;4.95;2.50;;;;;;;;;;5056388;28;20400;-76
2021/11/22 07:55:59;;;;;;;5.78;2.20;;;;;;;;;;5047050;28;20083;-76
2021/11/22 07:58:25;;;;;;;7.63;2.20;;;;;;;;;;5062113;28;20462;-76
2021/11/22 08:00:51;;;;;;;8.68;2.92;;;;;;;;;;5084628;28;20094;-77
2021/11/22 08:03:17;;;;;;;7.60;3.30;;;;;;;;;;5063817;28;20041;-76
2021/11/22 08:05:45;;;;;;;7.10;2.88;;;;;;;;;;5058927;28;20381;-80
2021/11/22 08:08:11;;;;;;;12.05;4.38;;;;;;;;;;5067756;28;20048;-76
2021/11/22 08:10:38;;;;;;;12.93;4.72;;;;;;;;;;5055203;28;20121;-76
2021/11/22 08:13:09;;;;;;;11.45;4.18;;;;;;;;;;5032653;28;20056;-78
2021/11/22 08:15:36;;;;;;;10.45;4.22;;;;;;;;;;5058767;28;20072;-76
2021/11/22 08:18:04;;;;;;;12.05;4.68;;;;;;;;;;5061960;28;20048;-76
2021/11/22 08:20:30;;;;;;;10.90;5.05;;;;;;;;;;5050885;28;20044;-76
2021/11/22 08:22:57;;;;;;;10.20;4.47;;;;;;;;;;5068310;28;20058;-76
2021/11/22 08:25:25;;;;;;;13.85;4.13;;;;;;;;;;5060129;28;20775;-76
2021/11/22 08:27:54;;;;;;;8.88;4.57;;;;;;;;;;5071945;28;20052;-76
2021/11/22 08:30:21;;;;;;;10.48;5.28;;;;;;;;;;5050606;28;20373;-85
2021/11/22 08:32:50;;;;;;;14.55;6.72;;;;;;;;;;5055197;28;20048;-76
2021/11/22 08:35:17;;;;;;;19.88;7.90;;;;;;;;;;5070708;28;20044;-75
2021/11/22 08:37:43;;;;;;;23.33;7.00;;;;;;;;;;5064822;28;20040;-79
2021/11/22 08:40:11;;;;;;;13.23;6.18;;;;;;;;;;5050748;28;20048;-75
2021/11/22 08:42:37;;;;;;;14.27;5.63;;;;;;;;;;5075061;28;20052;-75
2021/11/22 08:45:04;;;;;;;8.60;4.38;;;;;;;;;;5065530;28;20044;-78
2021/11/22 08:47:31;;;;;;;14.18;4.70;;;;;;;;;;5047538;28;20533;-76
2021/11/22 08:49:57;;;;;;;8.35;4.20;;;;;;;;;;5098805;28;20048;-76
2021/11/22 08:52:23;;;;;;;6.50;3.90;;;;;;;;;;5039352;28;20086;-77
2021/11/22 08:54:49;;;;;;;10.80;4.75;;;;;;;;;;5050150;28;20045;-77
2021/11/22 08:57:15;;;;;;;15.50;4.53;;;;;;;;;;5063876;28;21964;-76
2021/11/22 08:59:42;;;;;;;10.88;4.70;;;;;;;;;;5046304;28;20052;-75
2021/11/22 09:02:10;;;;;;;7.57;3.80;;;;;;;;;;5057607;28;20402;-76
2021/11/22 09:04:36;;;;;;;9.27;4.40;;;;;;;;;;5047763;28;20487;-79
2021/11/22 09:07:02;;;;;;;15.43;4.55;;;;;;;;;;5079832;28;20052;-76
2021/11/22 09:09:28;;;;;;;12.18;4.72;;;;;;;;;;5041617;28;20049;-78
2021/11/22 09:11:54;;;;;;;9.73;4.40;;;;;;;;;;5094917;28;20040;-78
2021/11/22 09:14:20;;;;;;;10.90;5.05;;;;;;;;;;5049359;28;20494;-79
2021/11/22 09:16:46;;;;;;;10.73;4.90;;;;;;;;;;5090617;28;20415;-80
2021/11/22 09:19:14;;;;;;;12.93;4.95;;;;;;;;;;5076569;28;20044;-82
2021/11/22 09:21:40;;;;;;;12.65;4.97;;;;;;;;;;5068307;28;20045;-77
2021/11/22 09:24:07;;;;;;;10.93;4.70;;;;;;;;;;5045511;28;20056;-76
2021/11/22 09:26:33;;;;;;;7.35;3.70;;;;;;;;;;5094617;28;20067;-82
2021/11/22 09:29:00;;;;;;;7.55;3.03;;;;;;;;;;5092957;28;20040;-82
2021/11/22 09:31:26;;;;;;;9.63;2.50;;;;;;;;;;5077479;28;20044;-83
2021/11/22 09:33:53;;;;;;;6.18;2.38;;;;;;;;;;5094175;27;20066;-76
2021/11/22 09:36:20;;;;;;;7.40;3.05;;;;;;;;;;5095043;27;20040;-75
2021/11/22 09:38:46;;;;;;;7.05;3.45;;;;;;;;;;5061146;28;20036;-71
2021/11/22 09:41:13;;;;;;;8.60;3.70;;;;;;;;;;5045968;28;20055;-71
2021/11/22 09:43:43;;;;;;;9.07;3.90;;;;;;;;;;5062280;28;20052;-71
2021/11/22 09:46:09;;;;;;;11.02;4.22;;;;;;;;;;5062837;28;20389;-72
2021/11/22 09:48:35;;;;;;;10.63;4.15;;;;;;;;;;5080906;28;20094;-73
2021/11/22 09:51:02;;;;;;;7.13;3.10;;;;;;;;;;5067786;28;20365;-72
2021/11/22 09:53:28;;;;;;;3.90;1.75;;;;;;;;;;5068594;28;20037;-74
2021/11/22 09:55:55;;;;;;;5.47;1.30;;;;;;;;;;5095571;28;20087;-72
2021/11/22 09:58:21;;;;;;;3.78;1.15;;;;;;;;;;5085423;28;20119;-71
2021/11/22 10:00:50;;;;;;;3.83;1.67;;;;;;;;;;5084386;28;20049;-70
2021/11/22 10:03:20;;;;;;;5.57;1.83;;;;;;;;;;5097883;28;20045;-73
2021/11/22 10:05:47;;;;;;;11.40;2.33;;;;;;;;;;5068926;28;20059;-72
2021/11/22 10:08:14;;;;;;;6.60;2.05;;;;;;;;;;5093730;28;20134;-72
2021/11/22 10:10:48;;;;;;;4.10;1.40;;;;;;;;;;5059236;28;20041;-73
2021/11/22 10:13:22;;;;;;;6.75;1.27;;;;;;;;;;5097701;28;20041;-72
2021/11/22 10:15:49;;;;;;;6.38;1.33;;;;;;;;;;5068511;28;20082;-72
2021/11/22 10:18:16;;;;;;;6.30;1.40;;;;;;;;;;5090930;28;20041;-72
2021/11/22 10:20:42;;;;;;;3.28;0.98;;;;;;;;;;5060135;28;20056;-72
2021/11/22 10:23:12;;;;;;;10.18;1.40;;;;;;;;;;5076209;28;20140;-76
2021/11/22 10:25:39;;;;;;;5.00;1.38;;;;;;;;;;5071579;28;20415;-72
2021/11/22 10:28:09;;;;;;;8.75;1.75;;;;;;;;;;5069965;28;20047;-72
2021/11/22 10:30:36;;;;;;;8.00;1.75;;;;;;;;;;5079384;28;20044;-73
2021/11/22 10:33:04;;;;;;;12.27;1.70;;;;;;;;;;5058440;28;20055;-74
2021/11/22 10:35:32;;;;;;;4.07;1.65;;;;;;;;;;5092326;28;20581;-73
2021/11/22 10:38:05;;;;;;;7.15;1.80;;;;;;;;;;5062063;28;20468;-72
2021/11/22 10:40:32;;;;;;;5.50;1.48;;;;;;;;;;5060676;28;20076;-73
2021/11/22 10:42:58;;;;;;;4.05;1.23;;;;;;;;;;5075855;28;20079;-72
2021/11/22 10:45:48;;;;;;;7.75;1.60;;;;;;;;;;5065555;28;20036;-72
2021/11/22 10:48:37;;;;;;;2.75;1.40;;;;;;;;;;5063639;28;20051;-73
2021/11/22 10:51:02;;;;;;;3.28;1.52;;;;;;;;;;5067658;28;20076;-72
2021/11/22 10:53:28;;;;;;;6.68;1.90;;;;;;;;;;5066648;28;20051;-74
2021/11/22 10:55:54;;;;;;;5.28;1.60;;;;;;;;;;5083798;28;20048;-72
2021/11/22 10:58:31;;;;;;;4.80;2.20;;;;;;;;;;5074973;28;20543;-72
2021/11/22 11:00:57;;;;;;;5.63;2.10;;;;;;;;;;5082023;28;20281;-72
2021/11/22 11:03:27;;;;;;;5.43;2.15;;;;;;;;;;5048723;28;20052;-73
2021/11/22 11:06:00;;;;;;;7.85;2.35;;;;;;;;;;5082347;28;20045;-72
2021/11/22 11:08:29;;;;;;;5.65;1.70;;;;;;;;;;5072714;28;20060;-72
2021/11/22 11:11:14;;;;;;;8.85;2.50;;;;;;;;;;5058416;28;20138;-82
2021/11/22 11:13:51;;;;;;;8.30;1.80;;;;;;;;;;5056738;28;20091;-72
2021/11/22 11:16:17;;;;;;;6.38;1.98;;;;;;;;;;5061613;28;20037;-73
2021/11/22 11:19:00;;;;;;;4.97;1.70;;;;;;;;;;5093002;28;20053;-73
2021/11/22 11:21:28;;;;;;;9.35;1.75;;;;;;;;;;5055653;28;20059;-74
2021/11/22 11:23:56;;;;;;;8.55;1.67;;;;;;;;;;5065991;28;20538;-73
2021/11/22 11:26:24;;;;;;;4.82;1.40;;;;;;;;;;5067563;28;20365;-72
2021/11/22 11:28:50;;;;;;;4.43;1.35;;;;;;;;;;5041139;28;20056;-71
2021/11/22 11:31:16;;;;;;;3.15;1.10;;;;;;;;;;5062111;28;20048;-73
2021/11/22 11:33:42;;;;;;;6.70;1.00;;;;;;;;;;5093571;28;20045;-76
2021/11/22 11:36:16;;;;;;;5.40;1.15;;;;;;;;;;5038282;28;20109;-84
2021/11/22 11:38:55;;;;;;;6.13;1.45;;;;;;;;;;5056600;28;20048;-72
2021/11/22 11:41:21;;;;;;;5.10;1.30;;;;;;;;;;5060815;28;20071;-79
2021/11/22 11:44:10;;;;;;;5.85;1.27;;;;;;;;;;5088658;28;20079;-72
2021/11/22 11:46:51;;;;;;;5.28;1.10;;;;;;;;;;5094402;28;20044;-73
2021/11/22 11:49:17;;;;;;;11.55;1.10;;;;;;;;;;5057725;28;21557;-79
2021/11/22 11:51:44;;;;;;;3.30;0.80;;;;;;;;;;5040994;28;20052;-75
2021/11/22 11:54:16;;;;;;;5.97;0.85;;;;;;;;;;5063698;28;20052;-73
2021/11/22 11:56:50;;;;;;;3.75;0.80;;;;;;;;;;5069778;28;20565;-75
2021/11/22 11:59:24;;;;;;;5.63;1.35;;;;;;;;;;5049575;28;20033;-72
2021/11/22 12:01:50;;;;;;;;;;;;;;;;;;5067527;28;20049;-72
2021/11/22 12:04:16;;;;;;;3.13;0.82;;;;;;;;;;5076143;28;19924;-73
2021/11/22 12:06:47;;;;;;;5.25;0.73;;;;;;;;;;5087783;28;20037;-77
2021/11/22 12:09:32;;;;;;;1.63;0.73;;;;;;;;;;5042723;28;20052;-72
2021/11/22 12:12:18;;;;;;;3.72;0.52;;;;;;;;;;5070165;28;20048;-77
2021/11/22 12:14:58;;;;;;;6.03;0.95;;;;;;;;;;5047025;28;20044;-74
2021/11/22 12:17:36;;;;;;;2.72;0.60;;;;;;;;;;5082372;28;20052;-73
2021/11/22 12:20:05;;;;;;;2.28;0.60;;;;;;;;;;5063200;28;20119;-70
2021/11/22 12:22:38;;;;;;;3.30;0.70;;;;;;;;;;5067159;28;20053;-70
2021/11/22 12:25:05;;;;;;;4.35;0.80;;;;;;;;;;5066112;28;20049;-71
2021/11/22 12:27:35;;;;;;;8.13;0.88;;;;;;;;;;5062038;28;20463;-72
2021/11/22 12:30:03;;;;;;;4.05;0.73;;;;;;;;;;5078928;28;20041;-71
2021/11/22 12:32:29;;;;;;;8.32;0.70;;;;;;;;;;5077747;28;20044;-72
2021/11/22 12:34:59;;;;;;;5.00;0.75;;;;;;;;;;5066588;28;20045;-71
2021/11/22 12:37:30;;;;;;;3.88;0.80;;;;;;;;;;5052772;28;20048;-75
2021/11/22 12:40:07;;;;;;;2.38;0.80;;;;;;;;;;5060675;28;20123;-75
2021/11/22 12:42:44;;;;;;;5.18;0.90;;;;;;;;;;5055874;28;20142;-72
2021/11/22 12:45:10;;;;;;;3.13;0.50;;;;;;;;;;5053622;28;20052;-70
2021/11/22 12:47:36;;;;;;;3.60;0.90;;;;;;;;;;5069642;28;20082;-70
2021/11/22 12:50:18;;;;;;;2.97;0.90;;;;;;;;;;5065604;28;20041;-69
2021/11/22 12:53:04;;;;;;;5.25;0.80;;;;;;;;;;5070293;28;20399;-71
2021/11/22 12:55:35;;;;;;;3.92;0.55;;;;;;;;;;5070890;28;20418;-70
2021/11/22 12:58:08;;;;;;;4.35;0.85;;;;;;;;;;5076332;28;20102;-70
2021/11/22 13:00:35;;;;;;;3.25;0.70;;;;;;;;;;5071738;28;20782;-70
2021/11/22 13:03:02;;;;;;;4.03;0.77;;;;;;;;;;5075684;28;20077;-70
2021/11/22 13:05:41;;;;;;;3.47;0.73;;;;;;;;;;5064164;28;20369;-70
2021/11/22 13:08:07;;;;;;;5.32;0.80;;;;;;;;;;5081894;28;20036;-70
2021/11/22 13:10:38;;;;;;;6.63;0.90;;;;;;;;;;5064392;28;20076;-71
2021/11/22 13:15:54;;;;;;;3.75;0.80;;;;;;;;;;5090063;28;20170;-70
2021/11/22 13:18:21;;;;;;;2.65;0.50;;;;;;;;;;5051108;28;20049;-71
2021/11/22 13:20:48;;;;;;;2.10;0.50;;;;;;;;;;5055412;28;20162;-78
2021/11/22 13:23:15;;;;;;;7.55;0.73;;;;;;;;;;5042998;28;20052;-83
2021/11/22 13:25:42;;;;;;;2.72;0.63;;;;;;;;;;5055070;28;20044;-80
2021/11/22 13:28:09;;;;;;;10.50;0.80;;;;;;;;;;5064106;28;20132;-80
2021/11/22 13:30:36;;;;;;;3.47;0.50;;;;;;;;;;5072837;28;20094;-79
2021/11/22 13:33:02;;;;;;;3.10;0.70;;;;;;;;;;5099503;28;20131;-82
2021/11/22 13:35:28;;;;;;;2.97;0.60;;;;;;;;;;5072615;28;20131;-83
2021/11/22 13:38:07;;;;;;;5.18;0.70;;;;;;;;;;5054030;28;20055;-77
2021/11/22 13:40:34;;;;;;;5.68;0.80;;;;;;;;;;5082136;28;20053;-77
2021/11/22 13:43:08;;;;;;;3.05;0.70;;;;;;;;;;5057957;28;20197;-79
2021/11/22 13:45:34;;;;;;;;;;;;;;;;;;5067727;28;20056;-78
2021/11/22 13:48:00;;;;;;;4.03;0.60;;;;;;;;;;5059541;28;20374;-77
2021/11/22 13:50:27;;;;;;;4.55;0.82;;;;;;;;;;5058183;28;20037;-77
2021/11/22 13:52:54;;;;;;;4.93;0.63;;;;;;;;;;5070981;28;20505;-81
2021/11/22 13:55:21;;;;;;;3.90;0.60;;;;;;;;;;5055376;28;20064;-77
2021/11/22 13:57:47;;;;;;;4.07;0.80;;;;;;;;;;5086292;28;20040;-77
2021/11/22 14:00:15;;;;;;;4.43;0.80;;;;;;;;;;5064115;28;20040;-77
2021/11/22 14:02:41;;;;;;;4.60;0.75;;;;;;;;;;5061931;28;20087;-78
2021/11/22 14:05:07;;;;;;;3.08;0.55;;;;;;;;;;5069212;28;20043;-78
2021/11/22 14:07:44;;;;;;;2.75;0.47;;;;;;;;;;5059258;28;20111;-78
2021/11/22 14:10:10;;;;;;;3.08;0.70;;;;;;;;;;5095707;28;20040;-79
2021/11/22 14:12:38;;;;;;;2.78;0.80;;;;;;;;;;5094476;28;20047;-77
2021/11/22 14:15:18;;;;;;;3.42;0.70;;;;;;;;;;5068699;28;20055;-77
2021/11/22 14:17:48;;;;;;;4.13;1.40;;;;;;;;;;5077709;28;20061;-77
2021/11/22 14:20:15;;;;;;;4.68;0.70;;;;;;;;;;5053173;28;20051;-77
2021/11/22 14:22:46;;;;;;;5.85;1.20;;;;;;;;;;5072414;28;20107;-76
2021/11/22 14:25:26;;;;;;;2.67;0.85;;;;;;;;;;5059944;28;20110;-76
2021/11/22 14:27:55;;;;;;;3.60;0.80;;;;;;;;;;5073998;28;20110;-77
2021/11/22 14:30:28;;;;;;;3.65;0.85;;;;;;;;;;5078734;28;20043;-77
2021/11/22 14:33:01;;;;;;;2.85;1.00;;;;;;;;;;5049972;28;20079;-77
2021/11/22 14:35:29;;;;;;;10.70;1.63;;;;;;;;;;5068020;28;20048;-77
2021/11/22 14:38:16;;;;;;;4.28;0.90;;;;;;;;;;5053538;28;20053;-75
2021/11/22 14:40:47;;;;;;;7.35;1.20;;;;;;;;;;5065601;28;20045;-76
2021/11/22 14:43:15;;;;;;;8.73;1.33;;;;;;;;;;5053802;28;20037;-75
2021/11/22 14:45:42;;;;;;;7.18;1.48;;;;;;;;;;5091859;28;20040;-75
2021/11/22 14:48:19;;;;;;;1.65;0.80;;;;;;;;;;5102961;28;20043;-76
2021/11/22 14:51:03;;;;;;;4.95;1.02;;;;;;;;;;5074655;28;20067;-75